To NAV CANADA Home Page Login to a new session Search on AWWS site Feedback and Comments Disclaimer Vers la page française équivalente Tips FAQ What's new on the site To the Forecasts and Observations / NOTAM section To "File a Flight Plan" website Publications and other links Update of the User's profile FIC Telephone Numbers My Weather Data Folder Route Weather Data Regional Weather Data Local Weather Data To the Forecasts and Observations / NOTAM section
Request Generated 08/22/2017 at 03:33:29 UTC . Weather information available at that time is displayed.

METAR/TAF

KUUJJUAQ/QC    

METAR CYVP 220300Z 35008KT 15SM BKN200 02/M00 A2976 RMK CI7 SLP082=
METAR CYVP 220200Z 34005KT 15SM BKN180 02/M00 A2978 RMK AC7 SLP088=
METAR CYVP 220100Z 34006KT 15SM SCT170 BKN230 02/M00 A2978 RMK AC4CI3
SLP090=

TAF CYVP 212338Z 2200/2212 04012KT P6SM FEW015 BKN220
FM220500 36007KT 6SM BR SCT030 TEMPO 2205/2208 BKN020
FM220800 VRB03KT P6SM BKN020 OVC030
BECMG 2210/2212 07005KT
RMK NXT FCST BY 220600Z=
Your time UTC time
Weather data provided by Environment Canada and NAV CANADA